Time;durP1;ratioP1;P1;durP2;ratioP2;P2;SDS_P1;SDS_P2;PMS_P1;PMS_P2;Temp;Humidity;BMP_temperature;BMP_pressure;BME280_temperature;BME280_humidity;BME280_pressure;Samples;Min_cycle;Max_cycle;Signal;HPM_P1;HPM_P2
2023/04/16 00:00:03;;;;;;;2.58;1.40;;;19.00;58.40;;;;;;5111069;28;20198;-57
2023/04/16 00:02:34;;;;;;;1.23;0.90;;;19.10;58.50;;;;;;5102599;28;20670;-57
2023/04/16 00:05:05;;;;;;;3.28;1.58;;;19.10;58.50;;;;;;5091584;28;20198;-57
2023/04/16 00:07:36;;;;;;;3.17;1.65;;;19.10;58.50;;;;;;5090397;28;20198;-57
2023/04/16 00:10:07;;;;;;;2.00;1.27;;;19.10;58.40;;;;;;5091838;28;20205;-57
2023/04/16 00:12:39;;;;;;;2.05;1.30;;;19.20;58.40;;;;;;5092041;28;20666;-57
2023/04/16 00:15:11;;;;;;;2.65;1.38;;;19.20;58.40;;;;;;5093508;28;20194;-56
2023/04/16 00:17:41;;;;;;;2.55;1.55;;;19.20;58.30;;;;;;5096553;28;20665;-57
2023/04/16 00:20:12;;;;;;;1.67;1.10;;;19.20;58.30;;;;;;5091095;28;20705;-56
2023/04/16 00:22:43;;;;;;;2.80;1.25;;;19.30;58.40;;;;;;5091442;28;20689;-57
2023/04/16 00:25:14;;;;;;;2.30;1.00;;;19.30;58.60;;;;;;5091616;28;20201;-57
2023/04/16 00:27:47;;;;;;;2.17;1.13;;;19.30;58.60;;;;;;5091382;28;20210;-57
2023/04/16 00:30:17;;;;;;;2.15;1.40;;;19.40;58.70;;;;;;5091352;28;20198;-57
2023/04/16 00:32:48;;;;;;;1.60;1.17;;;19.40;58.70;;;;;;5090768;28;20225;-58
2023/04/16 00:35:19;;;;;;;3.00;1.20;;;19.40;58.70;;;;;;5092073;28;20201;-57
2023/04/16 00:37:49;;;;;;;2.40;1.40;;;19.40;58.70;;;;;;5091266;28;20217;-57
2023/04/16 00:40:20;;;;;;;4.50;1.52;;;19.50;58.80;;;;;;5091850;28;20549;-54
2023/04/16 00:42:53;;;;;;;2.22;1.33;;;19.50;58.70;;;;;;5091022;28;20218;-57
2023/04/16 00:45:23;;;;;;;1.98;1.23;;;19.50;58.80;;;;;;5091303;28;20210;-56
2023/04/16 00:47:54;;;;;;;2.83;1.35;;;19.60;58.80;;;;;;5091400;28;20205;-56
2023/04/16 00:50:25;;;;;;;2.58;1.10;;;19.60;58.80;;;;;;5090971;28;20204;-55
2023/04/16 00:52:56;;;;;;;2.55;1.25;;;19.60;58.80;;;;;;5091224;28;20251;-55
2023/04/16 00:55:27;;;;;;;2.63;1.20;;;19.70;58.80;;;;;;5090333;28;20756;-56
2023/04/16 00:58:00;;;;;;;2.67;1.30;;;19.70;58.70;;;;;;5087791;28;20198;-56
2023/04/16 01:00:31;;;;;;;1.90;1.00;;;19.70;58.70;;;;;;5070397;28;20202;-55
2023/04/16 01:03:02;;;;;;;2.15;1.30;;;19.70;58.70;;;;;;5070490;28;20223;-54
2023/04/16 01:05:33;;;;;;;3.05;1.30;;;19.80;58.80;;;;;;5070506;28;20251;-56
2023/04/16 01:08:03;;;;;;;2.42;1.27;;;19.80;58.90;;;;;;5070162;28;20199;-58
2023/04/16 01:10:34;;;;;;;1.55;1.10;;;19.80;58.90;;;;;;5074401;28;20195;-55
2023/04/16 01:13:06;;;;;;;2.17;1.10;;;19.90;58.80;;;;;;5074162;28;20227;-57
2023/04/16 01:15:37;;;;;;;2.38;1.20;;;19.90;58.80;;;;;;5073972;28;20252;-57
2023/04/16 01:18:17;;;;;;;1.25;0.95;;;19.90;58.80;;;;;;5074059;28;20256;-57
2023/04/16 01:20:50;;;;;;;2.17;1.10;;;20.00;58.80;;;;;;5074160;28;20243;-57
2023/04/16 01:23:21;;;;;;;1.85;1.10;;;20.00;58.80;;;;;;5073939;28;20218;-58
2023/04/16 01:25:52;;;;;;;3.10;1.00;;;20.00;58.70;;;;;;5074020;28;20194;-57
2023/04/16 01:28:22;;;;;;;1.88;1.05;;;20.00;58.90;;;;;;5073859;28;20209;-57
2023/04/16 01:30:53;;;;;;;1.27;0.88;;;20.10;58.90;;;;;;5074065;28;20198;-57
2023/04/16 01:33:24;;;;;;;2.42;1.40;;;20.10;58.90;;;;;;5073995;28;20215;-57
2023/04/16 01:35:56;;;;;;;2.67;1.10;;;20.10;58.80;;;;;;5074487;28;20248;-56
2023/04/16 01:38:27;;;;;;;2.70;1.27;;;20.10;58.80;;;;;;5073947;28;20222;-57
2023/04/16 01:41:00;;;;;;;3.58;1.30;;;20.20;58.80;;;;;;5081992;28;20190;-57
2023/04/16 01:43:31;;;;;;;2.75;1.42;;;20.20;58.80;;;;;;5093651;28;20217;-57
2023/04/16 01:46:20;;;;;;;1.85;1.00;;;20.20;58.80;;;;;;5088393;28;20194;-57
2023/04/16 01:48:53;;;;;;;3.72;1.33;;;20.30;58.90;;;;;;5088564;28;20213;-57
2023/04/16 01:51:26;;;;;;;2.17;1.02;;;20.30;58.80;;;;;;5093549;28;20199;-57
2023/04/16 01:53:57;;;;;;;2.92;1.17;;;20.40;58.90;;;;;;5093290;28;20218;-57
2023/04/16 01:56:27;;;;;;;2.63;1.15;;;20.40;58.80;;;;;;5093928;28;21204;-57
2023/04/16 01:58:58;;;;;;;2.03;1.02;;;20.40;58.80;;;;;;5093721;28;20225;-57
2023/04/16 02:01:29;;;;;;;2.13;1.00;;;20.40;58.80;;;;;;5093791;28;20209;-58
2023/04/16 02:04:00;;;;;;;2.33;1.40;;;20.50;58.90;;;;;;5093672;28;20225;-57
2023/04/16 02:06:32;;;;;;;2.40;1.10;;;20.40;58.90;;;;;;5093807;28;20205;-58
2023/04/16 02:09:06;;;;;;;2.15;1.10;;;20.50;58.90;;;;;;5093827;28;20529;-57
2023/04/16 02:11:37;;;;;;;2.75;1.13;;;20.50;58.70;;;;;;5093317;28;20225;-58
2023/04/16 02:14:08;;;;;;;2.30;1.17;;;20.50;58.70;;;;;;5092642;28;20905;-58
2023/04/16 02:16:39;;;;;;;2.95;1.45;;;20.60;58.60;;;;;;5079084;28;20234;-57
2023/04/16 02:19:09;;;;;;;2.28;1.17;;;20.60;58.50;;;;;;5073041;28;20235;-57
2023/04/16 02:21:42;;;;;;;2.13;1.25;;;20.60;58.50;;;;;;5072010;28;20587;-57
2023/04/16 02:24:13;;;;;;;2.92;1.10;;;20.60;58.60;;;;;;5073132;28;20293;-57
2023/04/16 02:26:43;;;;;;;3.10;1.25;;;20.70;58.60;;;;;;5073265;28;20199;-57
2023/04/16 02:29:15;;;;;;;1.40;0.90;;;20.70;58.60;;;;;;5073326;28;20560;-58
2023/04/16 02:31:45;;;;;;;2.83;1.20;;;20.70;58.50;;;;;;5072504;28;20287;-57
2023/04/16 02:34:16;;;;;;;2.10;1.20;;;20.70;58.50;;;;;;5073020;28;20611;-58
2023/04/16 02:36:49;;;;;;;2.10;1.30;;;20.80;58.50;;;;;;5072545;28;20206;-57
2023/04/16 02:39:19;;;;;;;1.95;1.25;;;20.80;58.50;;;;;;5073038;28;20229;-57
2023/04/16 02:41:50;;;;;;;2.72;1.35;;;20.80;58.50;;;;;;5072267;28;20199;-57
2023/04/16 02:44:21;;;;;;;2.83;1.00;;;20.80;58.40;;;;;;5072018;28;20772;-57
2023/04/16 02:46:51;;;;;;;2.00;1.15;;;20.80;58.50;;;;;;5088064;28;20198;-57
2023/04/16 02:49:22;;;;;;;1.48;1.27;;;20.80;58.40;;;;;;5093129;28;20202;-57
2023/04/16 02:51:55;;;;;;;2.45;1.00;;;20.90;58.30;;;;;;5092993;28;20194;-58
2023/04/16 02:54:25;;;;;;;1.80;0.95;;;20.90;58.30;;;;;;5092677;28;20225;-57
2023/04/16 02:56:56;;;;;;;2.10;1.10;;;20.90;58.30;;;;;;5075443;28;20589;-57
2023/04/16 02:59:26;;;;;;;2.13;1.08;;;20.90;58.30;;;;;;5080798;28;20218;-57
2023/04/16 03:01:57;;;;;;;2.90;1.00;;;21.00;58.30;;;;;;5086594;28;20193;-57
2023/04/16 03:04:28;;;;;;;2.67;1.20;;;21.00;58.30;;;;;;5072443;28;20218;-58
2023/04/16 03:07:01;;;;;;;3.92;1.20;;;21.00;58.30;;;;;;5072376;28;20206;-58
2023/04/16 03:09:31;;;;;;;1.95;1.00;;;21.00;58.30;;;;;;5072232;28;20206;-57
2023/04/16 03:12:02;;;;;;;3.78;1.20;;;21.10;58.30;;;;;;5072231;28;20620;-58
2023/04/16 03:14:33;;;;;;;2.13;1.00;;;21.10;58.30;;;;;;5071788;28;20296;-58
2023/04/16 03:17:04;;;;;;;3.03;1.30;;;21.10;58.30;;;;;;5089282;28;20202;-58
2023/04/16 03:19:34;;;;;;;1.75;1.20;;;21.10;58.20;;;;;;5092003;28;20240;-57
2023/04/16 03:22:07;;;;;;;1.92;1.25;;;21.20;58.20;;;;;;5091915;28;20208;-58
2023/04/16 03:24:37;;;;;;;3.47;1.10;;;21.20;58.20;;;;;;5092074;28;20214;-57
2023/04/16 03:27:08;;;;;;;2.67;1.20;;;21.20;58.20;;;;;;5091985;28;20247;-58
2023/04/16 03:29:40;;;;;;;2.42;1.08;;;21.20;58.20;;;;;;5091948;28;20251;-58
2023/04/16 03:32:11;;;;;;;1.85;1.27;;;21.20;58.10;;;;;;5092246;28;20230;-58
2023/04/16 03:34:41;;;;;;;2.83;1.30;;;21.20;58.20;;;;;;5092473;28;20210;-58
2023/04/16 03:37:14;;;;;;;2.83;1.30;;;21.20;58.10;;;;;;5092210;28;20201;-58
2023/04/16 03:39:45;;;;;;;1.00;0.90;;;21.30;58.70;;;;;;5088372;28;20222;-58
2023/04/16 03:42:15;;;;;;;3.58;1.20;;;21.30;58.10;;;;;;5092672;28;20198;-58
2023/04/16 03:44:46;;;;;;;3.45;1.27;;;21.30;58.20;;;;;;5090717;28;20199;-58
2023/04/16 03:47:17;;;;;;;2.13;1.20;;;21.30;58.20;;;;;;5091912;28;20821;-58
2023/04/16 03:49:47;;;;;;;2.42;1.20;;;21.30;58.10;;;;;;5094777;28;20198;-57
2023/04/16 03:52:20;;;;;;;3.33;1.35;;;21.30;58.10;;;;;;5093082;28;20197;-58
2023/04/16 03:54:50;;;;;;;2.35;1.10;;;21.40;58.20;;;;;;5092425;28;20602;-58
2023/04/16 03:57:21;;;;;;;3.70;1.20;;;21.30;58.10;;;;;;5092773;28;20646;-58
2023/04/16 03:59:52;;;;;;;3.17;1.33;;;21.40;58.10;;;;;;5092035;28;20838;-58
2023/04/16 04:02:22;;;;;;;2.72;1.15;;;21.40;58.10;;;;;;5091585;28;20209;-58
2023/04/16 04:04:53;;;;;;;1.77;1.20;;;21.40;58.10;;;;;;5092093;28;20941;-58
2023/04/16 04:07:25;;;;;;;3.22;1.30;;;21.40;58.10;;;;;;5091560;28;20205;-58
2023/04/16 04:09:56;;;;;;;2.47;1.00;;;21.40;58.10;;;;;;5091576;28;20255;-58
2023/04/16 04:12:27;;;;;;;2.25;1.23;;;21.40;58.00;;;;;;5092213;28;20198;-58
2023/04/16 04:14:57;;;;;;;2.33;1.15;;;21.40;58.10;;;;;;5091943;28;20567;-58
2023/04/16 04:17:28;;;;;;;2.45;1.20;;;21.40;58.10;;;;;;5071792;28;20195;-58
2023/04/16 04:19:58;;;;;;;2.03;1.20;;;21.40;58.00;;;;;;5079035;28;20222;-58
2023/04/16 04:22:31;;;;;;;2.22;1.30;;;21.40;58.00;;;;;;5091612;28;20653;-58
2023/04/16 04:25:02;;;;;;;2.78;1.30;;;21.40;58.20;;;;;;5091470;28;20241;-58
2023/04/16 04:27:32;;;;;;;3.53;1.40;;;21.40;58.00;;;;;;5091358;28;20198;-57
2023/04/16 04:30:05;;;;;;;2.53;1.25;;;21.50;58.00;;;;;;5089363;28;20673;-58
2023/04/16 04:32:36;;;;;;;2.88;1.33;;;21.50;58.00;;;;;;5071322;28;20201;-58
2023/04/16 04:35:07;;;;;;;1.30;1.08;;;21.50;58.00;;;;;;5071197;28;20674;-58
2023/04/16 04:37:39;;;;;;;3.67;1.30;;;21.50;58.00;;;;;;5071350;28;20198;-58
2023/04/16 04:40:11;;;;;;;2.95;1.30;;;21.50;58.00;;;;;;5071230;28;20219;-58
2023/04/16 04:42:41;;;;;;;2.03;0.90;;;21.50;58.00;;;;;;5071175;28;20222;-58
2023/04/16 04:45:13;;;;;;;2.17;1.38;;;21.50;58.00;;;;;;5072990;28;20233;-58
2023/04/16 04:47:43;;;;;;;2.72;1.30;;;21.50;58.00;;;;;;5091900;28;20198;-58
2023/04/16 04:50:14;;;;;;;2.40;1.73;;;21.50;58.00;;;;;;5091524;28;20267;-58
2023/04/16 04:52:47;;;;;;;2.45;1.60;;;21.50;58.00;;;;;;5088209;28;20296;-58
2023/04/16 04:55:17;;;;;;;2.65;1.50;;;21.50;58.00;;;;;;5091319;28;20216;-58
2023/04/16 04:57:48;;;;;;;2.65;1.83;;;21.50;57.90;;;;;;5091375;28;20686;-58
2023/04/16 05:00:19;;;;;;;3.42;1.95;;;21.50;57.90;;;;;;5091063;28;20286;-58
2023/04/16 05:02:50;;;;;;;2.95;2.30;;;21.50;58.00;;;;;;5091194;28;20221;-58
2023/04/16 05:05:21;;;;;;;4.75;2.35;;;21.50;58.00;;;;;;5091487;28;20281;-61
2023/04/16 05:07:54;;;;;;;4.30;2.00;;;21.50;58.00;;;;;;5090456;28;20561;-58
2023/04/16 05:10:24;;;;;;;2.75;2.20;;;21.50;57.90;;;;;;5090786;28;20198;-58
2023/04/16 05:12:55;;;;;;;4.53;2.10;;;21.50;57.90;;;;;;5091377;28;20210;-58
2023/04/16 05:15:25;;;;;;;5.78;2.47;;;21.50;57.90;;;;;;5087285;28;20202;-59
2023/04/16 05:17:56;;;;;;;4.10;2.35;;;21.50;57.80;;;;;;5070720;28;20542;-58
2023/04/16 05:20:27;;;;;;;2.92;2.00;;;21.50;57.80;;;;;;5070785;28;20254;-58
2023/04/16 05:22:59;;;;;;;4.90;2.53;;;21.50;57.90;;;;;;5071328;28;20226;-58
2023/04/16 05:25:30;;;;;;;5.85;2.65;;;21.50;57.90;;;;;;5071264;28;20201;-58
2023/04/16 05:28:01;;;;;;;5.80;2.65;;;21.50;57.90;;;;;;5071135;28;20192;-59
2023/04/16 05:30:31;;;;;;;6.10;3.05;;;21.50;57.90;;;;;;5070423;28;20202;-59
2023/04/16 05:33:02;;;;;;;5.10;2.95;;;21.50;57.90;;;;;;5070876;28;20218;-58
2023/04/16 05:35:33;;;;;;;3.90;2.35;;;21.50;58.20;;;;;;5070989;28;20268;-58
2023/04/16 05:38:06;;;;;;;4.82;2.92;;;21.50;57.90;;;;;;5071507;28;20826;-58
2023/04/16 05:40:37;;;;;;;5.35;2.50;;;21.50;57.90;;;;;;5070966;28;20230;-58
2023/04/16 05:43:07;;;;;;;3.45;2.60;;;21.50;57.90;;;;;;5070806;28;20377;-59
2023/04/16 05:45:39;;;;;;;6.35;2.60;;;21.50;57.90;;;;;;5089847;28;20233;-58
2023/04/16 05:48:11;;;;;;;6.22;2.70;;;21.50;58.00;;;;;;5090926;28;20205;-58
2023/04/16 05:50:41;;;;;;;4.28;2.53;;;21.50;57.90;;;;;;5075502;28;20245;-58
2023/04/16 05:53:15;;;;;;;5.88;2.85;;;21.50;57.90;;;;;;5070156;28;20609;-58
2023/04/16 05:55:45;;;;;;;4.80;2.55;;;21.40;57.80;;;;;;5076596;28;20597;-59
2023/04/16 05:58:16;;;;;;;4.97;2.63;;;21.40;57.70;;;;;;5083654;28;20625;-59
2023/04/16 06:00:47;;;;;;;6.18;3.20;;;21.40;57.70;;;;;;5085150;28;20214;-58
2023/04/16 06:03:17;;;;;;;5.85;2.42;;;21.40;57.70;;;;;;5082867;28;20214;-58
2023/04/16 06:05:48;;;;;;;5.80;3.20;;;21.40;57.80;;;;;;5083386;28;20191;-59
2023/04/16 06:08:21;;;;;;;5.25;3.00;;;21.40;57.80;;;;;;5083854;28;20209;-58
2023/04/16 06:10:52;;;;;;;8.15;3.63;;;21.40;57.80;;;;;;5083116;28;20191;-59
2023/04/16 06:13:22;;;;;;;5.13;3.13;;;21.40;57.80;;;;;;5082227;28;20210;-59
2023/04/16 06:15:53;;;;;;;4.53;3.20;;;21.40;57.90;;;;;;5086783;28;20202;-59
2023/04/16 06:18:24;;;;;;;4.40;2.95;;;21.40;57.80;;;;;;5092034;28;20243;-58
2023/04/16 06:20:54;;;;;;;6.65;3.30;;;21.40;57.90;;;;;;5094228;28;20584;-58
2023/04/16 06:23:27;;;;;;;7.00;3.22;;;21.40;57.80;;;;;;5094412;28;20264;-58
2023/04/16 06:25:57;;;;;;;4.97;3.00;;;21.40;57.80;;;;;;5073995;28;20202;-59
2023/04/16 06:28:28;;;;;;;5.80;3.22;;;21.40;57.80;;;;;;5073583;28;20199;-58
2023/04/16 06:30:59;;;;;;;6.43;3.50;;;21.40;57.80;;;;;;5073579;28;20203;-58
2023/04/16 06:33:29;;;;;;;7.75;3.63;;;21.40;57.80;;;;;;5073269;28;20223;-59
2023/04/16 06:36:00;;;;;;;4.35;2.92;;;21.30;57.70;;;;;;5073193;28;20198;-58
2023/04/16 06:38:32;;;;;;;4.78;3.15;;;21.30;57.70;;;;;;5073596;28;20191;-58
2023/04/16 06:41:03;;;;;;;5.88;3.35;;;21.30;57.70;;;;;;5073086;28;20641;-59
2023/04/16 06:43:34;;;;;;;4.35;2.85;;;21.30;57.70;;;;;;5072513;28;20965;-58
2023/04/16 06:46:05;;;;;;;6.03;3.28;;;21.20;57.60;;;;;;5086287;28;20233;-59
2023/04/16 06:48:35;;;;;;;5.63;2.80;;;21.20;57.60;;;;;;5089998;28;20190;-59
2023/04/16 06:51:06;;;;;;;4.28;3.10;;;21.30;57.70;;;;;;5093388;28;20198;-59
2023/04/16 06:53:39;;;;;;;4.65;3.22;;;21.20;57.60;;;;;;5093782;28;20222;-59
2023/04/16 06:56:10;;;;;;;4.45;3.10;;;21.20;57.60;;;;;;5093558;28;20243;-59
2023/04/16 06:58:41;;;;;;;5.10;3.00;;;21.20;57.60;;;;;;5093360;28;20205;-58
2023/04/16 07:01:12;;;;;;;4.65;2.90;;;21.20;57.60;;;;;;5093390;28;20225;-58
2023/04/16 07:03:42;;;;;;;4.97;2.95;;;21.20;57.60;;;;;;5092990;28;20206;-59
2023/04/16 07:06:13;;;;;;;6.38;3.42;;;21.20;57.60;;;;;;5092615;28;20197;-59
2023/04/16 07:08:46;;;;;;;5.28;3.15;;;21.20;57.60;;;;;;5092635;28;20209;-58
2023/04/16 07:11:16;;;;;;;5.93;3.08;;;21.10;57.60;;;;;;5092294;28;20199;-59
2023/04/16 07:13:47;;;;;;;4.68;3.20;;;21.20;57.60;;;;;;5092856;28;20221;-59
2023/04/16 07:16:17;;;;;;;5.32;3.10;;;21.10;57.70;;;;;;5081641;28;20832;-59
2023/04/16 07:18:48;;;;;;;4.78;2.90;;;21.10;57.60;;;;;;5072784;28;20195;-59
2023/04/16 07:21:19;;;;;;;5.85;3.60;;;21.10;57.60;;;;;;5072327;28;20237;-59
2023/04/16 07:23:51;;;;;;;3.85;2.70;;;21.10;57.60;;;;;;5071905;28;20215;-59
2023/04/16 07:26:22;;;;;;;4.25;2.90;;;21.10;57.60;;;;;;5072203;28;20229;-59
2023/04/16 07:28:52;;;;;;;4.28;3.10;;;21.00;57.60;;;;;;5072661;28;20274;-59
2023/04/16 07:31:23;;;;;;;4.43;2.85;;;21.00;57.60;;;;;;5072487;28;20199;-59
2023/04/16 07:33:54;;;;;;;4.18;3.22;;;21.00;57.60;;;;;;5072250;28;20686;-59
2023/04/16 07:36:26;;;;;;;4.95;3.30;;;21.00;57.60;;;;;;5072289;28;20191;-59
2023/04/16 07:38:59;;;;;;;4.32;3.28;;;21.00;57.60;;;;;;5072760;28;20291;-59
2023/04/16 07:41:30;;;;;;;5.20;3.22;;;21.00;57.60;;;;;;5071661;28;20226;-58
2023/04/16 07:44:01;;;;;;;4.50;3.35;;;21.00;57.60;;;;;;5072315;28;20288;-59
2023/04/16 07:46:31;;;;;;;3.83;2.70;;;21.00;57.60;;;;;;5084670;28;20186;-59
2023/04/16 07:49:02;;;;;;;4.75;3.10;;;20.90;57.50;;;;;;5092542;28;20234;-58
2023/04/16 07:51:33;;;;;;;3.75;2.95;;;20.90;57.50;;;;;;5092276;28;20274;-59
2023/04/16 07:54:05;;;;;;;4.57;3.30;;;20.90;57.60;;;;;;5092156;28;20213;-58
2023/04/16 07:56:36;;;;;;;3.95;3.00;;;20.90;57.60;;;;;;5088041;28;20190;-59
2023/04/16 07:59:06;;;;;;;3.63;2.75;;;20.90;57.60;;;;;;5092535;28;20190;-59
2023/04/16 08:01:37;;;;;;;4.95;3.20;;;20.90;57.50;;;;;;5092465;28;20241;-58
2023/04/16 08:04:08;;;;;;;4.07;2.83;;;20.80;57.50;;;;;;5092391;28;20221;-58
2023/04/16 08:06:38;;;;;;;5.85;3.40;;;20.90;57.60;;;;;;5092018;28;20201;-59
2023/04/16 08:09:11;;;;;;;4.80;2.80;;;20.80;57.50;;;;;;5092209;28;20209;-59
2023/04/16 08:11:41;;;;;;;5.45;2.88;;;20.80;57.60;;;;;;5091462;28;20236;-59
2023/04/16 08:14:12;;;;;;;4.38;3.00;;;20.80;57.60;;;;;;5091840;28;20415;-59
2023/04/16 08:16:43;;;;;;;3.53;2.92;;;20.80;57.60;;;;;;5091806;28;20198;-59
2023/04/16 08:19:13;;;;;;;3.80;3.05;;;20.80;57.60;;;;;;5091389;28;20197;-59
2023/04/16 08:21:44;;;;;;;5.25;2.97;;;20.80;57.60;;;;;;5091988;28;20697;-59
2023/04/16 08:24:16;;;;;;;3.65;2.85;;;20.80;57.60;;;;;;5091618;28;20607;-58
2023/04/16 08:26:47;;;;;;;4.72;3.05;;;20.70;57.50;;;;;;5071113;28;20206;-58
2023/04/16 08:29:18;;;;;;;3.67;2.90;;;20.70;57.50;;;;;;5071674;28;20206;-59
2023/04/16 08:31:48;;;;;;;3.38;2.70;;;20.70;57.50;;;;;;5071765;28;20194;-59
2023/04/16 08:34:19;;;;;;;5.50;3.15;;;20.70;57.60;;;;;;5073095;28;20218;-58
2023/04/16 08:36:50;;;;;;;3.38;2.75;;;20.70;57.50;;;;;;5091019;28;20375;-58
2023/04/16 08:39:23;;;;;;;4.05;2.75;;;20.70;57.50;;;;;;5081038;28;20182;-59
2023/04/16 08:41:56;;;;;;;5.10;2.97;;;20.60;57.50;;;;;;5088167;28;20275;-60
2023/04/16 08:44:29;;;;;;;5.30;2.90;;;20.60;57.50;;;;;;5090726;28;20222;-59
2023/04/16 08:47:01;;;;;;;4.70;3.08;;;20.60;57.60;;;;;;5073949;28;20195;-58
2023/04/16 08:49:35;;;;;;;4.43;3.03;;;20.60;57.50;;;;;;5070266;28;20194;-59
2023/04/16 08:52:09;;;;;;;4.57;3.03;;;20.60;57.60;;;;;;5076733;28;20650;-58
2023/04/16 08:54:49;;;;;;;4.95;2.83;;;20.50;57.50;;;;;;5069787;28;20217;-58
2023/04/16 08:57:24;;;;;;;3.95;2.85;;;20.60;57.60;;;;;;5077593;28;20194;-58
2023/04/16 08:59:56;;;;;;;4.00;3.05;;;20.60;57.50;;;;;;5069689;28;20202;-59
2023/04/16 09:02:28;;;;;;;3.58;2.42;;;20.50;57.50;;;;;;5070079;28;20226;-61
2023/04/16 09:05:01;;;;;;;2.83;2.35;;;20.50;57.60;;;;;;5070497;28;20602;-58
2023/04/16 09:07:32;;;;;;;4.40;2.97;;;20.50;57.50;;;;;;5070130;28;20230;-59
2023/04/16 09:10:07;;;;;;;4.40;2.63;;;20.50;57.50;;;;;;5069013;28;20828;-59
2023/04/16 09:12:38;;;;;;;4.75;2.90;;;20.50;57.50;;;;;;5086288;28;20251;-59
2023/04/16 09:15:11;;;;;;;4.20;2.70;;;20.50;57.50;;;;;;5089163;28;20216;-58
2023/04/16 09:17:42;;;;;;;4.55;2.90;;;20.40;57.50;;;;;;5077555;28;20203;-58
2023/04/16 09:20:12;;;;;;;5.00;2.28;;;20.40;57.50;;;;;;5070798;28;20603;-59
2023/04/16 09:22:45;;;;;;;2.97;2.65;;;20.40;57.50;;;;;;5070624;28;20241;-60
2023/04/16 09:25:17;;;;;;;4.10;2.60;;;20.40;57.50;;;;;;5071587;28;20557;-57
2023/04/16 09:27:50;;;;;;;3.30;2.60;;;20.40;57.60;;;;;;5083899;28;20191;-59
2023/04/16 09:30:25;;;;;;;3.22;2.55;;;20.40;58.20;;;;;;5074484;28;20591;-59
2023/04/16 09:33:15;;;;;;;3.67;2.72;;;20.40;57.60;;;;;;5115081;28;20550;-59
2023/04/16 09:35:49;;;;;;;4.32;2.53;;;20.30;57.50;;;;;;5114285;28;20186;-59
2023/04/16 09:38:20;;;;;;;3.78;2.47;;;20.30;57.50;;;;;;5103966;28;20193;-59
2023/04/16 09:41:08;;;;;;;3.70;2.45;;;20.30;57.50;;;;;;5084947;28;20220;-58
2023/04/16 09:43:40;;;;;;;3.28;2.15;;;20.30;57.50;;;;;;5093525;28;20218;-59
2023/04/16 09:46:14;;;;;;;3.42;2.45;;;20.30;57.50;;;;;;5093490;28;20245;-58
2023/04/16 09:48:47;;;;;;;3.55;2.70;;;20.30;57.50;;;;;;5094905;28;20589;-58
2023/04/16 09:51:17;;;;;;;4.47;2.60;;;20.20;57.50;;;;;;5101845;28;20190;-59
2023/04/16 09:53:48;;;;;;;3.47;2.60;;;20.20;57.50;;;;;;5113529;28;20221;-58
2023/04/16 09:56:24;;;;;;;4.18;2.53;;;20.20;57.50;;;;;;5091159;28;20186;-58
2023/04/16 09:59:01;;;;;;;5.28;2.40;;;20.10;57.40;;;;;;5094251;28;20292;-59
2023/04/16 10:01:33;;;;;;;4.35;2.65;;;20.10;57.40;;;;;;5093656;28;20229;-59
2023/04/16 10:04:07;;;;;;;3.70;2.47;;;20.10;57.50;;;;;;5093153;28;20214;-58
2023/04/16 10:06:38;;;;;;;4.05;2.50;;;20.10;57.50;;;;;;5093884;28;20189;-57
2023/04/16 10:09:11;;;;;;;3.60;2.22;;;20.10;57.50;;;;;;5093563;28;20275;-59
2023/04/16 10:11:44;;;;;;;4.03;2.70;;;20.10;57.50;;;;;;5093855;28;20201;-58
2023/04/16 10:14:15;;;;;;;4.70;2.80;;;20.10;57.60;;;;;;5093715;28;20224;-58
2023/04/16 10:16:46;;;;;;;4.53;2.97;;;20.10;57.50;;;;;;5093185;28;20198;-58
2023/04/16 10:19:17;;;;;;;5.60;2.42;;;20.10;57.50;;;;;;5094063;28;20653;-57
2023/04/16 10:21:48;;;;;;;4.68;2.72;;;20.10;57.50;;;;;;5093668;28;20222;-58
2023/04/16 10:24:19;;;;;;;4.38;2.80;;;20.10;57.50;;;;;;5093291;28;20271;-58
2023/04/16 10:26:53;;;;;;;5.15;2.70;;;20.00;57.50;;;;;;5092045;28;20220;-58
2023/04/16 10:29:24;;;;;;;6.80;3.20;;;20.00;57.50;;;;;;5074367;28;20213;-60
2023/04/16 10:31:56;;;;;;;3.67;2.97;;;20.00;57.50;;;;;;5084806;28;20194;-57
2023/04/16 10:34:27;;;;;;;4.18;2.63;;;20.00;57.50;;;;;;5093780;28;20213;-57
2023/04/16 10:36:58;;;;;;;4.85;3.00;;;20.00;57.50;;;;;;5089533;28;20274;-57
2023/04/16 10:39:31;;;;;;;4.50;2.80;;;20.00;57.50;;;;;;5088103;28;20240;-58
2023/04/16 10:42:14;;;;;;;6.57;3.22;;;19.90;57.50;;;;;;5083918;28;20745;-59
2023/04/16 10:44:44;;;;;;;6.57;3.72;;;19.90;57.50;;;;;;5092196;28;20705;-58
2023/04/16 10:47:15;;;;;;;4.32;2.83;;;19.90;57.50;;;;;;5092985;28;20206;-58
2023/04/16 10:49:49;;;;;;;4.95;2.85;;;19.90;57.50;;;;;;5094102;28;20201;-56
2023/04/16 10:52:21;;;;;;;5.38;2.58;;;19.90;57.50;;;;;;5093820;28;20194;-59
2023/04/16 10:54:54;;;;;;;5.22;2.95;;;19.90;57.50;;;;;;5093157;28;20202;-58
2023/04/16 10:57:32;;;;;;;5.90;3.13;;;19.90;57.50;;;;;;5093558;28;20190;-57
2023/04/16 11:00:03;;;;;;;5.60;3.00;;;19.90;57.50;;;;;;5091792;28;20190;-57
2023/04/16 11:02:33;;;;;;;6.28;3.30;;;19.80;57.40;;;;;;5107153;28;20689;-57
2023/04/16 11:05:05;;;;;;;6.70;3.20;;;19.80;57.40;;;;;;5112884;28;20198;-57
2023/04/16 11:07:38;;;;;;;5.50;3.65;;;19.80;57.50;;;;;;5113074;28;20189;-57
2023/04/16 11:10:14;;;;;;;4.78;2.75;;;19.80;57.50;;;;;;5113018;28;20193;-58
2023/04/16 11:12:49;;;;;;;5.05;3.08;;;19.80;57.50;;;;;;5113137;27;20223;-58
2023/04/16 11:15:20;;;;;;;6.22;3.53;;;19.80;57.50;;;;;;5105866;28;20206;-61
2023/04/16 11:17:52;;;;;;;5.90;2.85;;;19.70;57.40;;;;;;5088688;28;20190;-58
2023/04/16 11:20:24;;;;;;;4.68;3.08;;;19.70;57.40;;;;;;5072654;28;20675;-58
2023/04/16 11:22:56;;;;;;;7.25;3.50;;;19.80;57.50;;;;;;5089163;28;20229;-60
2023/04/16 11:25:28;;;;;;;4.63;3.05;;;19.70;57.50;;;;;;5088160;28;20187;-60
2023/04/16 11:28:01;;;;;;;4.80;3.08;;;19.70;57.50;;;;;;5082129;28;20266;-59
2023/04/16 11:30:33;;;;;;;6.05;3.17;;;19.70;57.50;;;;;;5081088;28;20179;-59
2023/04/16 11:33:05;;;;;;;4.13;2.78;;;19.70;57.50;;;;;;5079632;28;20211;-58
2023/04/16 11:35:38;;;;;;;5.57;2.83;;;19.70;57.50;;;;;;5081166;28;20198;-60
2023/04/16 11:38:08;;;;;;;5.45;2.78;;;19.70;57.40;;;;;;5083147;28;20668;-61
2023/04/16 11:40:39;;;;;;;3.70;2.67;;;19.70;57.50;;;;;;5082202;28;20206;-59
2023/04/16 11:43:18;;;;;;;5.03;3.15;;;19.60;57.40;;;;;;5078134;28;20683;-61
2023/04/16 11:45:59;;;;;;;4.30;2.70;;;19.60;57.40;;;;;;5076553;28;20257;-60
2023/04/16 11:48:49;;;;;;;5.18;3.10;;;19.60;57.40;;;;;;5080833;28;20191;-60
2023/04/16 11:51:22;;;;;;;4.07;2.63;;;19.60;57.40;;;;;;5080797;28;20559;-58
2023/04/16 11:53:53;;;;;;;4.80;2.60;;;19.60;57.40;;;;;;5079135;28;20207;-58
2023/04/16 11:56:30;;;;;;;5.30;3.08;;;19.50;57.40;;;;;;5081995;28;20225;-58
2023/04/16 11:59:13;;;;;;;6.13;2.78;;;19.50;57.50;;;;;;5081979;28;20190;-58
2023/04/16 12:01:47;;;;;;;4.32;3.03;;;19.50;57.50;;;;;;5081841;28;20217;-58
2023/04/16 12:04:18;;;;;;;6.22;3.22;;;19.50;57.50;;;;;;5080729;28;20686;-58
2023/04/16 12:07:13;;;;;;;6.05;2.90;;;19.50;57.50;;;;;;5079654;28;20195;-58
2023/04/16 12:09:46;;;;;;;4.82;2.95;;;19.50;57.50;;;;;;5088627;28;20647;-59
2023/04/16 12:12:29;;;;;;;6.85;2.92;;;19.50;57.40;;;;;;5092341;28;20202;-58
2023/04/16 12:15:02;;;;;;;4.75;3.08;;;19.40;57.40;;;;;;5091943;28;20198;-58
2023/04/16 12:17:33;;;;;;;5.88;3.08;;;19.40;57.40;;;;;;5091685;28;20222;-60
2023/04/16 12:20:07;;;;;;;4.60;3.17;;;19.40;57.40;;;;;;5092084;28;20737;-60
2023/04/16 12:22:39;;;;;;;6.68;3.70;;;19.40;57.40;;;;;;5091710;28;20222;-58
2023/04/16 12:25:12;;;;;;;6.45;3.58;;;19.40;57.40;;;;;;5091975;28;20198;-59
2023/04/16 12:27:49;;;;;;;4.82;2.70;;;19.40;57.40;;;;;;5091956;28;20194;-61
2023/04/16 12:30:22;;;;;;;6.22;3.15;;;19.40;57.40;;;;;;5092254;28;20708;-58
2023/04/16 12:32:55;;;;;;;3.92;2.70;;;19.40;57.40;;;;;;5091461;28;20220;-59
2023/04/16 12:35:35;;;;;;;5.22;3.15;;;19.30;57.40;;;;;;5091892;28;20194;-59
2023/04/16 12:38:08;;;;;;;5.07;2.92;;;19.30;57.50;;;;;;5092152;28;20204;-58
2023/04/16 12:40:39;;;;;;;5.78;3.40;;;19.30;57.50;;;;;;5088034;28;20197;-58
2023/04/16 12:43:10;;;;;;;6.03;3.20;;;19.30;57.40;;;;;;5091607;28;20233;-59
2023/04/16 12:45:43;;;;;;;4.20;2.90;;;19.30;57.40;;;;;;5091707;28;20212;-59
2023/04/16 12:48:14;;;;;;;6.35;2.90;;;19.30;57.50;;;;;;5091270;28;20560;-58
2023/04/16 12:50:45;;;;;;;6.18;3.10;;;19.30;57.50;;;;;;5091283;28;20247;-57
2023/04/16 12:53:15;;;;;;;3.75;2.80;;;19.30;57.50;;;;;;5091367;28;20214;-59
2023/04/16 12:55:46;;;;;;;5.35;3.17;;;19.30;57.50;;;;;;5092125;28;20194;-59
2023/04/16 12:58:17;;;;;;;5.97;3.05;;;19.20;57.40;;;;;;5091699;28;20213;-58
2023/04/16 13:00:49;;;;;;;4.75;2.80;;;19.20;57.40;;;;;;5091189;28;20197;-58
2023/04/16 13:03:20;;;;;;;5.90;3.08;;;19.20;57.40;;;;;;5091225;28;20222;-58
2023/04/16 13:05:51;;;;;;;7.18;3.50;;;19.20;57.40;;;;;;5091268;28;20230;-58
2023/04/16 13:08:21;;;;;;;6.15;3.28;;;19.20;57.40;;;;;;5091556;28;20201;-58
2023/04/16 13:10:52;;;;;;;6.10;3.13;;;19.20;57.50;;;;;;5091628;28;20202;-58